Time;durP1;ratioP1;P1;durP2;ratioP2;P2;SDS_P1;SDS_P2;PMS_P1;PMS_P2;Temp;Humidity;BMP_temperature;BMP_pressure;BME280_temperature;BME280_humidity;BME280_pressure;Samples;Min_cycle;Max_cycle;Signal;HPM_P1;HPM_P2
2024/02/08 00:02:06;;;;;;;7.63;5.50;;;;;;;18.96;49.15;96248.22;5006991;28;20198;-25
2024/02/08 00:04:34;;;;;;;7.37;5.70;;;;;;;18.95;49.04;96242.25;5009639;28;20292;-25
2024/02/08 00:07:01;;;;;;;5.50;4.63;;;;;;;18.96;48.56;96250.75;5011946;28;20237;-25
2024/02/08 00:09:28;;;;;;;6.43;4.83;;;;;;;18.90;49.17;96243.88;5011816;28;20257;-26
2024/02/08 00:11:55;;;;;;;6.03;5.37;;;;;;;18.95;49.32;96256.69;5001814;28;20236;-25
2024/02/08 00:14:23;;;;;;;6.53;5.20;;;;;;;18.95;48.60;96254.16;5012184;28;20238;-25
2024/02/08 00:16:52;;;;;;;5.90;4.77;;;;;;;18.96;48.71;96258.41;5011281;28;20222;-25
2024/02/08 00:19:19;;;;;;;6.13;4.70;;;;;;;18.95;48.92;96256.69;5011910;28;20198;-27
2024/02/08 00:21:45;;;;;;;6.90;5.10;;;;;;;18.93;49.08;96249.03;5010880;28;20198;-25
2024/02/08 00:24:12;;;;;;;7.40;5.53;;;;;;;18.95;48.89;96259.25;5011828;28;20257;-25
2024/02/08 00:26:41;;;;;;;7.47;5.20;;;;;;;18.95;48.89;96249.88;5010232;28;20684;-27
2024/02/08 00:29:08;;;;;;;6.73;5.10;;;;;;;18.96;48.98;96255.84;5006666;28;20219;-25
2024/02/08 00:31:35;;;;;;;6.57;4.80;;;;;;;18.95;48.78;96254.16;5009279;28;20210;-25
2024/02/08 00:34:01;;;;;;;7.47;5.40;;;;;;;18.97;48.92;96255.00;5012102;28;20226;-25
2024/02/08 00:36:28;;;;;;;6.67;4.70;;;;;;;18.98;48.99;96251.66;5008668;28;20261;-25
2024/02/08 00:38:55;;;;;;;6.70;5.07;;;;;;;18.97;48.96;96247.38;5011894;28;20640;-25
2024/02/08 00:41:23;;;;;;;7.67;5.43;;;;;;;18.96;48.96;96246.53;5011771;28;20257;-26
2024/02/08 00:43:52;;;;;;;6.13;4.77;;;;;;;18.96;49.04;96245.66;5011623;28;20385;-26
2024/02/08 00:46:19;;;;;;;7.97;5.60;;;;;;;18.94;49.52;96240.53;5015633;28;20226;-25
2024/02/08 00:48:46;;;;;;;6.83;5.40;;;;;;;18.94;48.95;96243.09;5015454;28;20226;-28
2024/02/08 00:51:14;;;;;;;6.20;4.57;;;;;;;18.93;48.87;96236.28;5015614;28;20198;-25
2024/02/08 00:53:43;;;;;;;6.73;5.27;;;;;;;18.90;48.95;96232.81;4998317;28;20217;-25
2024/02/08 00:56:12;;;;;;;6.80;4.73;;;;;;;18.95;48.88;96243.97;5012583;28;20224;-25
2024/02/08 00:58:39;;;;;;;6.77;5.10;;;;;;;18.96;49.06;96248.22;5014763;28;20750;-25
2024/02/08 01:01:09;;;;;;;7.63;5.37;;;;;;;18.95;48.95;96243.97;5015109;28;20202;-26
2024/02/08 01:03:36;;;;;;;7.10;5.27;;;;;;;18.94;49.09;96235.44;5015370;28;20198;-25
2024/02/08 01:06:03;;;;;;;6.17;4.93;;;;;;;18.95;49.12;96236.31;5012981;28;20222;-31
2024/02/08 01:08:29;;;;;;;5.93;5.07;;;;;;;18.96;49.14;96238.03;5014636;28;20237;-25
2024/02/08 01:10:56;;;;;;;5.50;4.80;;;;;;;18.95;48.72;96226.97;5012160;28;20252;-25
2024/02/08 01:13:24;;;;;;;7.23;5.30;;;;;;;18.97;48.47;96248.25;5006810;28;20297;-25
2024/02/08 01:15:50;;;;;;;6.60;4.80;;;;;;;18.97;48.81;96239.75;5012413;28;20413;-25
2024/02/08 01:18:17;;;;;;;6.77;4.90;;;;;;;18.97;48.93;96237.19;5013220;28;20206;-27
2024/02/08 01:20:45;;;;;;;5.93;4.73;;;;;;;18.95;49.52;96236.31;5014360;28;20210;-25
2024/02/08 01:23:11;;;;;;;6.80;5.47;;;;;;;18.96;49.03;96238.03;5009085;28;20198;-25
2024/02/08 01:25:41;;;;;;;5.97;4.83;;;;;;;18.94;48.86;96232.03;5014106;28;20732;-25
2024/02/08 01:28:08;;;;;;;7.07;5.40;;;;;;;18.94;49.07;96221.84;5014979;28;20198;-25
2024/02/08 01:30:35;;;;;;;6.30;5.30;;;;;;;18.95;48.96;96232.06;5014743;28;20229;-28
2024/02/08 01:33:02;;;;;;;5.60;4.93;;;;;;;18.94;49.02;96225.28;5008970;28;20671;-26
2024/02/08 01:35:28;;;;;;;6.77;5.27;;;;;;;18.94;49.08;96229.50;5012465;28;20242;-26
2024/02/08 01:37:55;;;;;;;4.97;4.43;;;;;;;18.94;49.40;96227.81;5014378;28;20625;-25
2024/02/08 01:40:22;;;;;;;6.37;5.17;;;;;;;18.94;49.19;96225.28;5014640;28;20198;-25
2024/02/08 01:42:52;;;;;;;5.93;5.07;;;;;;;18.93;49.18;96228.66;5018270;28;20202;-26
2024/02/08 01:45:37;;;;;;;6.40;4.53;;;;;;;18.93;49.02;96220.16;5023137;28;20226;-25
2024/02/08 01:48:11;;;;;;;5.73;4.83;;;;;;;18.94;48.89;96212.53;5010421;28;20202;-25
2024/02/08 01:50:41;;;;;;;5.67;5.07;;;;;;;18.89;48.97;96206.50;4994006;28;20281;-25
2024/02/08 01:53:13;;;;;;;5.80;4.50;;;;;;;18.89;49.02;96200.56;4996929;28;20236;-25
2024/02/08 01:55:40;;;;;;;5.30;4.63;;;;;;;18.96;48.94;96210.91;5009020;28;20226;-25
2024/02/08 01:58:07;;;;;;;5.63;4.80;;;;;;;18.96;48.81;96210.91;5014223;28;20755;-26
2024/02/08 02:00:37;;;;;;;7.40;5.10;;;;;;;18.95;48.86;96213.41;5015457;28;20218;-26
2024/02/08 02:03:04;;;;;;;6.37;4.90;;;;;;;18.92;48.99;96195.53;5005686;28;20284;-25
2024/02/08 02:05:31;;;;;;;5.20;4.47;;;;;;;18.94;48.89;96207.47;5012624;28;20284;-27
2024/02/08 02:07:58;;;;;;;5.97;4.93;;;;;;;18.92;49.04;96198.09;4987339;28;20619;-25
2024/02/08 02:10:32;;;;;;;5.63;4.70;;;;;;;18.90;48.85;96195.50;5014046;28;20727;-29
2024/02/08 02:13:00;;;;;;;6.27;4.77;;;;;;;18.93;49.10;96202.34;4996878;28;20234;-25
2024/02/08 02:15:31;;;;;;;5.47;4.73;;;;;;;18.92;49.12;96198.09;5013922;28;20222;-25
2024/02/08 02:18:00;;;;;;;6.53;4.87;;;;;;;18.93;49.15;96202.34;5013639;28;20574;-26
2024/02/08 02:20:29;;;;;;;5.33;4.57;;;;;;;18.92;49.13;96191.28;5013831;28;20206;-25
2024/02/08 02:22:58;;;;;;;5.10;4.60;;;;;;;18.93;48.70;96199.78;5014079;28;20202;-26
2024/02/08 02:25:28;;;;;;;5.10;4.60;;;;;;;18.91;49.01;96193.81;5012410;28;20238;-25
2024/02/08 02:28:00;;;;;;;4.70;4.27;;;;;;;18.94;48.96;96193.84;5013569;28;20211;-25
2024/02/08 02:30:28;;;;;;;5.43;4.50;;;;;;;18.94;49.04;96196.41;5014096;28;20309;-25
2024/02/08 02:32:55;;;;;;;5.13;4.63;;;;;;;18.93;48.79;96185.38;5013605;28;20217;-27
2024/02/08 02:35:22;;;;;;;5.57;4.63;;;;;;;18.95;48.83;96180.31;4995875;28;20218;-26
2024/02/08 02:37:50;;;;;;;4.97;4.33;;;;;;;18.95;49.08;96176.06;4996038;28;20206;-25
2024/02/08 02:40:23;;;;;;;5.80;5.00;;;;;;;18.95;49.04;96187.97;5013163;28;20206;-25
2024/02/08 02:42:51;;;;;;;6.17;4.80;;;;;;;18.93;49.08;96177.75;5018299;28;20292;-25
2024/02/08 02:45:23;;;;;;;6.50;4.47;;;;;;;18.86;49.22;96173.34;5013372;28;20226;-25
2024/02/08 02:47:53;;;;;;;5.10;4.40;;;;;;;18.90;49.18;96171.72;5013127;28;20276;-25
2024/02/08 02:50:21;;;;;;;5.60;4.57;;;;;;;18.94;48.95;96178.59;5013205;28;20229;-25
2024/02/08 02:52:47;;;;;;;5.90;4.90;;;;;;;18.93;49.14;96172.66;5009489;28;20209;-25
2024/02/08 02:55:15;;;;;;;5.73;4.43;;;;;;;18.93;49.00;96177.75;5013269;28;20746;-25
2024/02/08 02:57:41;;;;;;;6.27;4.80;;;;;;;18.90;48.99;96172.59;5012919;28;20199;-26
2024/02/08 03:00:21;;;;;;;6.27;4.63;;;;;;;18.92;48.93;96178.56;5012483;28;20198;-25
2024/02/08 03:02:49;;;;;;;5.43;4.50;;;;;;;18.91;48.92;96170.91;5012470;28;20208;-27
2024/02/08 03:05:17;;;;;;;5.20;4.43;;;;;;;18.92;49.03;96167.53;5012742;28;20241;-26
2024/02/08 03:07:45;;;;;;;5.00;4.10;;;;;;;18.93;49.06;96170.09;5012502;28;20635;-25
2024/02/08 03:10:13;;;;;;;5.17;4.37;;;;;;;18.94;49.02;96174.38;4988080;28;20320;-25
2024/02/08 03:12:40;;;;;;;5.47;4.47;;;;;;;18.94;48.93;96165.84;5014137;28;20617;-25
2024/02/08 03:15:09;;;;;;;5.33;4.57;;;;;;;18.93;48.76;96166.69;5016781;28;20222;-25
2024/02/08 03:17:38;;;;;;;6.77;5.00;;;;;;;18.92;49.08;96154.81;5018601;28;20226;-26
2024/02/08 03:20:08;;;;;;;4.50;4.10;;;;;;;18.92;49.00;96167.53;5020839;28;20557;-25
2024/02/08 03:22:35;;;;;;;6.00;4.60;;;;;;;18.91;48.96;96166.66;5013346;28;20271;-25
2024/02/08 03:25:04;;;;;;;5.07;4.57;;;;;;;18.83;49.10;96149.56;5013593;28;20245;-25
2024/02/08 03:27:36;;;;;;;6.47;4.93;;;;;;;18.91;49.38;96165.81;5015990;28;20256;-25
2024/02/08 03:30:04;;;;;;;4.93;4.30;;;;;;;18.90;49.17;96164.97;5013199;28;20572;-25
2024/02/08 03:32:31;;;;;;;5.97;4.40;;;;;;;18.90;49.10;96152.25;5010054;28;20210;-26
2024/02/08 03:34:57;;;;;;;5.23;4.33;;;;;;;18.90;49.45;96161.56;5014184;28;20825;-25
2024/02/08 03:37:27;;;;;;;4.53;3.97;;;;;;;18.90;49.01;96159.88;5012104;28;20625;-25
2024/02/08 03:39:54;;;;;;;5.47;4.73;;;;;;;18.90;48.86;96159.88;5007050;28;20199;-25
2024/02/08 03:42:21;;;;;;;5.43;4.50;;;;;;;18.90;49.11;96154.78;5012340;28;20210;-25
2024/02/08 03:44:48;;;;;;;4.87;4.30;;;;;;;18.90;49.20;96154.78;5012269;28;20218;-26
2024/02/08 03:47:17;;;;;;;4.93;4.30;;;;;;;18.91;48.81;96156.50;5017811;28;20198;-25
2024/02/08 03:49:51;;;;;;;5.23;4.73;;;;;;;18.92;48.84;96159.91;5011350;28;20222;-25
2024/02/08 03:52:20;;;;;;;5.30;4.20;;;;;;;18.92;49.46;96160.75;5011766;28;20625;-25
2024/02/08 03:54:47;;;;;;;6.13;4.40;;;;;;;18.83;49.14;96147.84;5011590;28;20681;-25
2024/02/08 03:57:13;;;;;;;4.90;4.30;;;;;;;18.91;49.03;96163.25;5011540;28;20500;-26
2024/02/08 03:59:41;;;;;;;5.90;4.67;;;;;;;18.92;49.20;96162.44;5000563;28;20209;-25
2024/02/08 04:02:09;;;;;;;5.33;4.50;;;;;;;18.91;49.18;96169.22;5011737;28;20198;-25
2024/02/08 04:04:54;;;;;;;5.10;4.20;;;;;;;18.88;49.16;96153.88;5011292;28;20293;-25
2024/02/08 04:07:45;;;;;;;5.43;4.03;;;;;;;18.91;49.18;96160.72;5011645;28;20206;-25
2024/02/08 04:10:18;;;;;;;5.00;4.50;;;;;;;18.89;49.30;96159.84;5012146;28;20250;-26
2024/02/08 04:54:09;;;;;;;4.87;4.20;;;;;;;18.88;49.11;96151.34;5015758;28;20275;-34
2024/02/08 04:56:36;;;;;;;5.03;4.27;;;;;;;18.89;49.23;96149.66;5022900;28;20320;-25
2024/02/08 04:59:05;;;;;;;4.57;3.93;;;;;;;18.89;49.32;96149.66;5024730;28;20201;-25
2024/02/08 05:01:49;;;;;;;5.23;4.40;;;;;;;18.90;49.23;96141.19;5016597;28;20206;-27
2024/02/08 05:04:18;;;;;;;4.63;4.10;;;;;;;18.89;48.97;96147.97;4997896;28;20672;-25
2024/02/08 05:06:45;;;;;;;4.73;4.27;;;;;;;18.91;49.63;96142.91;5010399;28;20222;-26
2024/02/08 05:09:15;;;;;;;4.77;4.37;;;;;;;18.88;49.36;96148.81;5013260;28;20198;-25
2024/02/08 05:11:43;;;;;;;5.83;4.37;;;;;;;18.91;49.21;96147.97;5014898;28;20222;-25
2024/02/08 05:14:10;;;;;;;5.30;4.63;;;;;;;18.90;49.09;96143.72;5015103;28;20198;-25
2024/02/08 05:16:37;;;;;;;4.67;4.00;;;;;;;18.91;49.22;96147.97;5016009;28;20233;-26
2024/02/08 05:19:04;;;;;;;4.33;3.73;;;;;;;18.89;49.37;96142.03;5014927;28;20203;-25
2024/02/08 05:21:31;;;;;;;5.10;4.60;;;;;;;18.89;49.50;96147.97;5011543;28;20627;-25
2024/02/08 05:23:58;;;;;;;5.03;4.13;;;;;;;18.89;49.48;96155.59;4997284;28;20198;-29
2024/02/08 05:26:31;;;;;;;6.40;4.77;;;;;;;18.89;49.37;96150.50;5013469;28;20226;-25
2024/02/08 05:28:59;;;;;;;4.57;4.17;;;;;;;18.80;49.27;96135.06;5016374;28;20555;-27
2024/02/08 05:31:25;;;;;;;5.67;4.63;;;;;;;18.85;49.37;96143.66;5013271;28;20246;-25
2024/02/08 05:33:56;;;;;;;5.17;4.23;;;;;;;18.89;49.29;96152.22;5017458;28;20293;-25
2024/02/08 05:36:24;;;;;;;5.80;4.03;;;;;;;18.87;49.33;96139.47;5009113;28;20771;-25
2024/02/08 05:38:56;;;;;;;5.07;4.13;;;;;;;18.91;48.95;96146.31;5015792;28;20199;-27
2024/02/08 05:41:23;;;;;;;4.70;4.20;;;;;;;18.89;49.46;96139.50;5020593;28;20218;-25
2024/02/08 05:43:51;;;;;;;4.80;4.30;;;;;;;18.91;49.17;96146.31;5001121;28;20205;-25
2024/02/08 05:46:25;;;;;;;7.60;3.97;;;;;;;18.93;47.92;96148.88;5009002;28;20306;-31
2024/02/08 05:48:52;;;;;;;4.57;4.07;;;;;;;18.93;47.26;96156.50;5024542;28;20265;-27
2024/02/08 05:51:26;;;;;;;4.90;4.10;;;;;;;18.92;47.85;96157.34;4988668;28;20770;-25
2024/02/08 05:53:53;;;;;;;5.47;4.33;;;;;;;18.91;48.11;96145.44;5020697;28;20202;-26
2024/02/08 05:56:21;;;;;;;8.23;4.40;;;;;;;18.92;48.80;96153.09;5007117;28;20234;-26
2024/02/08 05:58:51;;;;;;;5.10;4.13;;;;;;;18.91;48.90;96148.84;5010785;28;20206;-25
2024/02/08 06:01:20;;;;;;;4.23;3.70;;;;;;;18.94;48.63;96154.00;5004348;28;20197;-25
2024/02/08 06:03:47;;;;;;;5.13;4.13;;;;;;;18.94;48.88;96146.34;5013693;28;20937;-29
2024/02/08 06:06:26;;;;;;;5.77;5.00;;;;;;;18.94;48.86;96148.91;5017259;28;20222;-25
2024/02/08 06:08:56;;;;;;;5.67;4.20;;;;;;;18.96;48.91;96148.94;5010888;28;20629;-26
2024/02/08 06:11:23;;;;;;;4.83;4.03;;;;;;;18.93;49.00;96149.75;5009074;28;20230;-25
2024/02/08 06:13:55;;;;;;;5.60;4.60;;;;;;;18.97;48.82;96160.81;5007158;28;20257;-27
2024/02/08 06:16:29;;;;;;;7.20;4.17;;;;;;;18.96;48.77;96149.81;5009891;28;20230;-27
2024/02/08 06:19:02;;;;;;;4.70;3.83;;;;;;;18.99;48.67;96160.03;5016749;28;20198;-25
2024/02/08 06:21:43;;;;;;;4.40;3.90;;;;;;;19.00;48.81;96159.19;5010460;28;20755;-25
2024/02/08 06:26:56;;;;;;;4.80;4.13;;;;;;;19.02;48.72;96159.22;5007330;28;20721;-25
2024/02/08 06:29:38;;;;;;;4.43;4.03;;;;;;;19.03;48.85;96163.47;5014922;28;20229;-25
2024/02/08 06:32:23;;;;;;;6.17;4.53;;;;;;;19.02;48.80;96155.00;4997212;28;20225;-25
2024/02/08 06:35:06;;;;;;;5.97;4.40;;;;;;;19.02;48.80;96162.63;5014206;28;20213;-25
2024/02/08 06:37:42;;;;;;;5.50;4.50;;;;;;;19.01;48.77;96160.91;4996053;28;20202;-26
2024/02/08 06:40:17;;;;;;;4.93;4.43;;;;;;;19.01;48.96;96160.91;5014204;28;20567;-28
2024/02/08 06:43:15;;;;;;;5.00;4.50;;;;;;;19.02;48.79;96160.09;5012334;28;20202;-25
2024/02/08 07:37:27;;;;;;;5.27;4.33;;;;;;;19.02;48.98;96172.81;5098026;28;20202;-27
2024/02/08 07:39:54;;;;;;;5.97;4.70;;;;;;;19.03;48.97;96176.19;5100286;28;20259;-26
2024/02/08 07:42:32;;;;;;;4.93;4.43;;;;;;;19.01;49.10;96171.09;5090711;28;20207;-27
2024/02/08 07:45:04;;;;;;;5.00;4.50;;;;;;;19.02;48.93;96177.03;5094479;28;20294;-25
2024/02/08 07:47:33;;;;;;;6.63;4.57;;;;;;;19.01;49.31;96175.34;5097604;28;20662;-29
2024/02/08 07:50:08;;;;;;;4.97;4.30;;;;;;;18.99;49.03;96175.31;5093548;28;20200;-27
2024/02/08 07:52:46;;;;;;;7.27;5.40;;;;;;;19.00;49.72;96171.94;5095591;28;20593;-27
2024/02/08 07:57:58;;;;;;;5.07;4.43;;;;;;;19.01;49.28;96172.78;5091264;28;20207;-28
2024/02/08 08:03:07;;;;;;;6.17;4.70;;;;;;;19.02;49.36;96171.94;5090969;28;20237;-26
2024/02/08 08:05:41;;;;;;;6.97;4.70;;;;;;;19.01;49.36;96175.34;5091808;28;20280;-29
2024/02/08 08:08:28;;;;;;;5.50;4.40;;;;;;;18.93;49.26;96169.25;5090552;28;20674;-33
2024/02/08 08:11:05;;;;;;;4.73;4.20;;;;;;;19.02;49.33;96177.03;5094610;28;20207;-26
2024/02/08 08:19:10;;;;;;;4.83;4.33;;;;;;;19.01;49.19;96168.53;5076814;28;20216;-27
2024/02/08 08:22:03;;;;;;;4.77;4.27;;;;;;;19.01;49.12;96176.19;5078808;28;20253;-27
2024/02/08 08:24:42;;;;;;;6.40;5.07;;;;;;;19.01;49.60;96176.19;5082463;28;20215;-27
2024/02/08 08:27:32;;;;;;;5.33;4.13;;;;;;;19.01;49.86;96177.88;5076501;28;20206;-28
2024/02/08 08:29:58;;;;;;;4.83;4.33;;;;;;;19.02;49.07;96174.50;5079951;28;20227;-26
2024/02/08 08:38:13;;;;;;;4.83;4.30;;;;;;;19.02;49.21;96167.72;5072111;28;20208;-35
2024/02/08 08:40:37;;;;;;;5.97;3.93;;;;;;;18.95;49.49;96157.41;5076524;28;20200;-32
2024/02/08 08:43:19;;;;;;;4.70;4.03;;;;;;;19.02;49.39;96170.28;5074938;28;20691;-26
2024/02/08 08:45:50;;;;;;;4.80;3.80;;;;;;;19.03;49.21;96168.56;5073802;28;20220;-27
2024/02/08 08:48:20;;;;;;;4.07;3.67;;;;;;;19.04;49.25;96172.84;5079100;28;20204;-27
2024/02/08 08:50:55;;;;;;;4.83;4.03;;;;;;;19.03;49.44;96163.47;5074082;28;20236;-26
2024/02/08 08:53:35;;;;;;;4.20;3.80;;;;;;;19.04;49.34;96155.03;5085554;28;20199;-41
2024/02/08 08:56:03;;;;;;;4.37;3.97;;;;;;;19.04;49.28;96157.56;5076220;28;20615;-26
2024/02/08 08:58:39;;;;;;;5.67;3.93;;;;;;;19.05;49.27;96172.00;5083912;28;20204;-27
2024/02/08 09:01:15;;;;;;;4.73;3.77;;;;;;;19.03;48.66;96159.25;5077235;28;20283;-27
2024/02/08 09:03:43;;;;;;;3.93;3.53;;;;;;;19.03;48.82;96166.88;5075834;28;20220;-26
2024/02/08 09:06:13;;;;;;;4.23;3.83;;;;;;;18.96;48.91;96154.03;5077955;28;20219;-26
2024/02/08 09:08:54;;;;;;;5.17;3.70;;;;;;;19.04;48.90;96168.59;5082684;28;20222;-29
2024/02/08 09:11:24;;;;;;;4.07;3.40;;;;;;;19.04;48.93;96166.03;5084523;28;20245;-34
2024/02/08 09:13:52;;;;;;;3.67;3.33;;;;;;;19.04;48.93;96175.38;5079296;28;20192;-28
2024/02/08 09:21:35;;;;;;;8.20;3.87;;;;;;;18.79;49.02;96122.31;5079890;28;20208;-27
2024/02/08 09:24:03;;;;;;;4.40;3.57;;;;;;;19.04;49.04;96160.94;5076709;28;20219;-26
2024/02/08 09:26:48;;;;;;;4.77;3.63;;;;;;;19.04;48.88;96160.13;5076082;28;20740;-29
2024/02/08 09:29:23;;;;;;;4.50;3.57;;;;;;;19.05;48.99;96161.81;5078264;28;20204;-27
2024/02/08 09:31:58;;;;;;;4.53;3.67;;;;;;;19.06;49.02;96158.44;5070563;28;20391;-26
2024/02/08 09:34:37;;;;;;;4.07;3.33;;;;;;;19.05;48.87;96149.97;5076163;28;20196;-27
2024/02/08 09:37:07;;;;;;;5.43;3.53;;;;;;;18.97;48.96;96127.72;5072039;28;20199;-29
2024/02/08 09:42:26;;;;;;;4.63;3.40;;;;;;;19.08;48.84;96142.38;5077379;28;20200;-29
2024/02/08 09:45:04;;;;;;;6.40;3.30;;;;;;;19.07;48.97;96133.00;5068202;28;20227;-26
2024/02/08 09:47:35;;;;;;;9.23;3.90;;;;;;;19.05;48.67;96127.03;5076727;28;20204;-26
2024/02/08 09:50:07;;;;;;;6.97;3.50;;;;;;;19.08;48.87;96137.28;5057238;28;20197;-27
2024/02/08 09:52:41;;;;;;;3.57;3.13;;;;;;;19.07;48.89;96140.63;5075146;28;20196;-27
2024/02/08 09:55:18;;;;;;;4.53;3.30;;;;;;;19.07;48.87;96139.81;5059928;28;20216;-27
2024/02/08 09:57:46;;;;;;;3.87;3.10;;;;;;;19.03;48.91;96141.44;5073922;28;20196;-27
2024/02/08 10:00:34;;;;;;;3.40;3.07;;;;;;;19.05;48.95;96146.53;5055623;28;20197;-26
2024/02/08 10:03:04;;;;;;;4.67;3.63;;;;;;;19.06;48.68;96151.66;5095210;28;20204;-26
2024/02/08 10:06:23;;;;;;;4.67;3.20;;;;;;;19.05;48.89;96144.00;5073163;28;20873;-32
2024/02/08 10:08:28;;;;;;;5.13;3.47;;;;;;;19.05;48.96;96155.06;5080161;28;20200;-27
2024/02/08 10:16:43;;;;;;;3.50;3.00;;;;;;;19.03;48.90;96128.69;5073916;28;20232;-28
2024/02/08 10:19:47;;;;;;;3.77;3.30;;;;;;;19.02;49.01;96129.53;5074321;28;20203;-27
2024/02/08 10:22:26;;;;;;;6.77;3.60;;;;;;;19.02;49.09;96129.53;5078906;28;20212;-28
2024/02/08 10:27:21;;;;;;;3.80;3.50;;;;;;;19.01;48.75;96117.63;5076377;28;20200;-28
2024/02/08 10:29:50;;;;;;;3.70;3.30;;;;;;;19.03;49.03;96113.41;5073817;28;20203;-26
2024/02/08 10:32:20;;;;;;;4.53;3.20;;;;;;;19.02;48.84;96104.09;5080538;28;20261;-27
2024/02/08 10:34:52;;;;;;;4.40;3.10;;;;;;;19.02;48.92;96109.16;5081628;28;20200;-32
2024/02/08 10:42:58;;;;;;;4.00;3.10;;;;;;;19.03;48.98;96110.00;5069144;28;20204;-26
2024/02/08 10:45:32;;;;;;;4.27;3.10;;;;;;;19.03;49.00;96098.16;5106715;27;20286;-28
2024/02/08 10:47:59;;;;;;;8.50;3.20;;;;;;;19.04;48.66;96096.47;5074406;28;20254;-26
2024/02/08 10:50:29;;;;;;;3.97;3.13;;;;;;;19.04;48.92;96086.28;5061477;28;20252;-27
2024/02/08 10:53:00;;;;;;;3.80;2.90;;;;;;;19.05;48.80;96082.91;5078252;28;20712;-26
2024/02/08 10:55:36;;;;;;;7.03;3.17;;;;;;;19.05;48.84;96081.22;5083520;28;20747;-27
2024/02/08 11:03:14;;;;;;;3.60;3.10;;;;;;;19.01;48.78;96068.41;5071509;28;20279;-26
2024/02/08 11:08:50;;;;;;;4.10;3.00;;;;;;;19.05;49.00;96073.59;5073158;28;20646;-29
2024/02/08 11:11:20;;;;;;;3.17;2.90;;;;;;;19.01;48.96;96066.69;5069297;28;20211;-28
2024/02/08 11:13:53;;;;;;;4.23;2.97;;;;;;;19.04;49.10;96056.56;5072502;28;20202;-27
2024/02/08 11:16:27;;;;;;;3.47;3.07;;;;;;;19.04;48.99;96050.66;5070889;28;20224;-26
2024/02/08 11:18:54;;;;;;;4.03;3.03;;;;;;;19.06;48.96;96059.13;5071456;28;20207;-28
2024/02/08 11:21:28;;;;;;;5.47;3.00;;;;;;;19.05;48.98;96037.94;5073677;28;20206;-27
2024/02/08 11:23:57;;;;;;;3.73;3.20;;;;;;;19.07;49.25;96050.69;5058551;28;20293;-30
2024/02/08 11:26:26;;;;;;;4.10;2.90;;;;;;;19.07;49.14;96043.06;5095751;28;20715;-26
2024/02/08 11:29:20;;;;;;;3.60;2.73;;;;;;;19.08;48.94;96037.13;5072373;28;20200;-27
2024/02/08 11:31:46;;;;;;;4.33;3.00;;;;;;;19.09;48.96;96043.91;5063368;28;20575;-30
2024/02/08 11:34:14;;;;;;;4.43;3.03;;;;;;;19.09;48.92;96036.28;5071753;28;20265;-27
2024/02/08 11:36:52;;;;;;;5.73;3.07;;;;;;;19.10;49.04;96041.38;5073142;28;20227;-36
2024/02/08 11:39:28;;;;;;;5.17;3.20;;;;;;;19.12;48.92;96041.41;5066860;28;20247;-31
2024/02/08 11:42:00;;;;;;;3.90;3.20;;;;;;;19.13;49.16;96032.97;5072655;28;20202;-29
2024/02/08 11:44:28;;;;;;;5.43;2.97;;;;;;;19.14;48.98;96027.03;5071890;28;20284;-27
2024/02/08 11:47:17;;;;;;;3.80;2.90;;;;;;;19.16;49.01;96033.00;5070811;28;20655;-27
2024/02/08 11:50:03;;;;;;;4.27;2.77;;;;;;;19.17;49.07;96033.03;5075243;28;20207;-28
2024/02/08 11:52:31;;;;;;;2.93;2.60;;;;;;;19.21;48.88;96026.28;5071152;28;20283;-27
2024/02/08 11:55:13;;;;;;;4.40;3.17;;;;;;;19.22;48.94;96020.38;5077068;28;20215;-28
2024/02/08 11:57:40;;;;;;;3.97;2.67;;;;;;;19.23;48.94;96024.63;5075852;28;20223;-27
2024/02/08 12:00:15;;;;;;;3.13;2.83;;;;;;;19.23;48.88;96007.66;5070471;28;20204;-29
2024/02/08 12:02:58;;;;;;;3.83;2.70;;;;;;;19.24;48.82;96004.25;5076605;28;20208;-27
2024/02/08 12:05:27;;;;;;;3.30;2.67;;;;;;;19.25;48.86;96006.00;5075062;28;20327;-27
2024/02/08 12:08:08;;;;;;;3.33;2.80;;;;;;;19.28;48.86;95997.56;5073893;28;20200;-26
2024/02/08 12:10:41;;;;;;;3.23;2.70;;;;;;;19.29;48.65;95991.63;5068607;28;20273;-27
2024/02/08 12:13:12;;;;;;;3.60;2.67;;;;;;;19.29;48.71;95992.50;5074507;28;20720;-32
2024/02/08 12:15:49;;;;;;;3.73;3.00;;;;;;;19.31;48.76;95984.88;5078639;28;20227;-28
2024/02/08 12:18:18;;;;;;;2.93;2.40;;;;;;;19.32;48.65;95973.84;5075585;28;20203;-28
2024/02/08 12:20:45;;;;;;;2.83;2.60;;;;;;;19.33;48.64;95978.94;5068430;28;20201;-27
2024/02/08 12:23:16;;;;;;;3.37;2.70;;;;;;;19.33;48.62;95978.13;5079995;28;20254;-27
2024/02/08 12:25:43;;;;;;;3.37;2.60;;;;;;;19.34;48.73;95975.59;5074256;28;20220;-28
2024/02/08 12:28:10;;;;;;;2.60;2.30;;;;;;;19.35;48.71;95971.34;5076348;28;20303;-26
2024/02/08 12:30:39;;;;;;;2.77;2.57;;;;;;;19.35;48.77;95967.09;5073421;28;20204;-26
2024/02/08 12:33:09;;;;;;;2.87;2.57;;;;;;;19.35;48.46;95977.28;5091853;28;20701;-26
2024/02/08 12:35:40;;;;;;;4.93;2.63;;;;;;;19.32;48.45;95959.41;5083914;28;20302;-26
2024/02/08 12:38:10;;;;;;;2.50;2.30;;;;;;;19.37;48.71;95967.13;5075785;28;20581;-27
2024/02/08 12:40:37;;;;;;;3.50;2.80;;;;;;;19.36;48.60;95968.81;5061767;28;20196;-37
2024/02/08 12:43:08;;;;;;;5.57;2.60;;;;;;;19.37;48.29;95957.81;5069478;28;20192;-27
2024/02/08 12:45:35;;;;;;;2.67;2.40;;;;;;;19.38;48.58;95956.97;5113218;27;20216;-27
2024/02/08 12:48:07;;;;;;;3.90;3.10;;;;;;;19.38;48.48;95954.41;5059491;28;20234;-31
2024/02/08 12:50:36;;;;;;;2.83;2.30;;;;;;;19.38;48.63;95956.97;5068667;28;20288;-27
2024/02/08 12:53:05;;;;;;;3.90;2.50;;;;;;;19.40;48.46;95950.19;5075416;28;20197;-27
2024/02/08 12:55:32;;;;;;;3.77;2.83;;;;;;;19.40;48.41;95946.78;5074607;28;20270;-28
2024/02/08 12:58:01;;;;;;;2.77;2.50;;;;;;;19.40;48.56;95945.09;5074985;28;20291;-27
2024/02/08 13:00:37;;;;;;;2.40;2.20;;;;;;;19.41;48.72;95944.25;5076247;28;20208;-27
2024/02/08 13:03:08;;;;;;;2.57;2.37;;;;;;;19.34;48.47;95926.34;5075302;28;20212;-27
2024/02/08 13:05:39;;;;;;;3.13;2.30;;;;;;;19.41;48.50;95928.09;5070928;28;20225;-28
2024/02/08 13:08:07;;;;;;;2.57;2.37;;;;;;;19.41;48.61;95939.16;5070805;28;20262;-26
2024/02/08 13:10:34;;;;;;;2.50;2.30;;;;;;;19.42;48.55;95927.28;5068196;28;20219;-29
2024/02/08 13:13:09;;;;;;;2.77;2.30;;;;;;;19.42;48.51;95932.38;5077944;28;20250;-27
2024/02/08 13:15:36;;;;;;;2.73;2.33;;;;;;;19.43;48.38;95926.44;5077573;28;20217;-26
2024/02/08 13:18:09;;;;;;;2.60;2.40;;;;;;;19.42;48.57;95919.66;5069813;28;20209;-28
2024/02/08 13:20:36;;;;;;;3.23;2.30;;;;;;;19.43;48.51;95911.16;5068455;28;20200;-26
2024/02/08 13:23:09;;;;;;;2.67;2.17;;;;;;;19.41;48.45;95910.28;5077133;28;20197;-28
2024/02/08 13:25:36;;;;;;;3.27;2.37;;;;;;;19.42;48.48;95906.91;5068176;28;20216;-28
2024/02/08 13:28:03;;;;;;;3.40;2.70;;;;;;;19.42;48.48;95906.91;5066954;28;20200;-26
2024/02/08 13:30:30;;;;;;;2.37;2.17;;;;;;;19.43;48.77;95900.97;5066332;28;20656;-28
2024/02/08 13:32:57;;;;;;;3.50;2.60;;;;;;;19.42;48.60;95899.28;5071273;28;20208;-27
2024/02/08 13:35:26;;;;;;;3.13;2.33;;;;;;;19.42;48.64;95897.56;5064218;28;20213;-29
2024/02/08 13:37:53;;;;;;;2.43;2.23;;;;;;;19.34;48.56;95872.84;5072151;28;20201;-27
2024/02/08 13:40:22;;;;;;;4.50;2.30;;;;;;;19.44;48.55;95883.16;5072174;28;20200;-27
2024/02/08 13:42:49;;;;;;;2.27;2.07;;;;;;;19.44;48.48;95885.72;5075299;28;20204;-27
2024/02/08 13:45:24;;;;;;;2.17;1.90;;;;;;;19.45;48.45;95877.22;5068229;28;20228;-27
2024/02/08 13:47:56;;;;;;;2.40;2.20;;;;;;;19.44;48.40;95872.09;5072987;28;20739;-27
2024/02/08 13:50:28;;;;;;;2.53;2.20;;;;;;;19.44;48.31;95875.50;5069431;28;20192;-27
2024/02/08 13:52:58;;;;;;;2.87;2.43;;;;;;;19.44;48.36;95870.41;5079173;28;20667;-27
2024/02/08 13:55:31;;;;;;;2.40;2.20;;;;;;;19.45;48.58;95868.75;5078108;28;20220;-26
2024/02/08 13:58:17;;;;;;;2.43;2.23;;;;;;;19.44;48.58;95862.78;5079486;28;20631;-26
2024/02/08 14:00:44;;;;;;;3.77;2.77;;;;;;;19.45;48.57;95864.47;5077486;28;20239;-26
2024/02/08 14:03:10;;;;;;;2.00;1.90;;;;;;;19.45;48.48;95856.00;5079958;28;20698;-26
2024/02/08 14:05:39;;;;;;;2.10;1.90;;;;;;;19.45;48.47;95866.19;5078831;28;20598;-28
2024/02/08 14:08:09;;;;;;;1.90;1.73;;;;;;;19.44;48.57;95847.50;5062623;28;20560;-28
2024/02/08 14:10:36;;;;;;;2.23;2.03;;;;;;;19.45;48.71;95858.53;5072402;28;20196;-27
2024/02/08 14:13:06;;;;;;;2.43;2.10;;;;;;;19.45;48.40;95861.09;5076152;28;20196;-30
2024/02/08 14:15:33;;;;;;;2.40;2.10;;;;;;;19.46;48.56;95855.16;5074695;28;20208;-28